Time;durP1;ratioP1;P1;durP2;ratioP2;P2;SDS_P1;SDS_P2;PMS_P1;PMS_P2;Temp;Humidity;BMP_temperature;BMP_pressure;BME280_temperature;BME280_humidity;BME280_pressure;Samples;Min_cycle;Max_cycle;Signal;HPM_P1;HPM_P2
2023/06/19 00:00:21;;;;;;;15.02;13.48;;;18.80;99.90;;;;;;2092974;28;20063;-78
2023/06/19 00:01:21;;;;;;;16.27;13.48;;;18.70;99.90;;;;;;2103165;28;20024;-79
2023/06/19 00:02:22;;;;;;;15.75;14.02;;;18.70;99.90;;;;;;2102485;28;20032;-77
2023/06/19 00:03:22;;;;;;;15.30;13.65;;;18.70;99.90;;;;;;2096941;28;20024;-78
2023/06/19 00:04:23;;;;;;;14.73;13.32;;;18.70;99.90;;;;;;2097058;28;20052;-78
2023/06/19 00:05:24;;;;;;;15.25;13.65;;;18.70;99.90;;;;;;2098299;28;20054;-78
2023/06/19 00:06:25;;;;;;;16.92;14.00;;;18.70;99.90;;;;;;2093486;28;20036;-78
2023/06/19 00:07:26;;;;;;;16.27;13.88;;;18.60;99.90;;;;;;2094874;28;20043;-78
2023/06/19 00:08:26;;;;;;;15.05;13.30;;;18.60;99.90;;;;;;2096732;28;20619;-78
2023/06/19 00:09:27;;;;;;;15.57;13.93;;;18.60;99.90;;;;;;2103016;28;20039;-78
2023/06/19 00:10:28;;;;;;;15.60;13.57;;;18.60;99.90;;;;;;2104998;28;20108;-78
2023/06/19 00:11:28;;;;;;;15.48;13.63;;;18.60;99.90;;;;;;2098344;28;20054;-78
2023/06/19 00:12:29;;;;;;;16.17;14.48;;;18.60;99.90;;;;;;2101022;28;20036;-77
2023/06/19 00:13:30;;;;;;;15.68;13.05;;;18.60;99.90;;;;;;2096070;28;20408;-79
2023/06/19 00:14:30;;;;;;;16.00;14.30;;;18.60;99.90;;;;;;2094487;28;20111;-78
2023/06/19 00:15:31;;;;;;;24.25;14.23;;;18.60;99.90;;;;;;2093918;28;20033;-78
2023/06/19 00:16:32;;;;;;;17.25;14.32;;;18.50;99.90;;;;;;2091726;28;20039;-77
2023/06/19 00:17:32;;;;;;;15.20;13.70;;;18.50;99.90;;;;;;2095063;28;20035;-77
2023/06/19 00:18:39;;;;;;;16.15;13.98;;;18.60;99.90;;;;;;2100884;28;20027;-77
2023/06/19 00:19:40;;;;;;;15.13;13.63;;;18.50;99.90;;;;;;2102776;28;20111;-77
2023/06/19 00:20:40;;;;;;;16.30;14.27;;;18.50;99.90;;;;;;2098942;28;20020;-77
2023/06/19 00:21:42;;;;;;;16.40;14.70;;;18.40;99.90;;;;;;2093212;28;20024;-77
2023/06/19 00:22:43;;;;;;;15.73;13.88;;;18.40;99.90;;;;;;2095450;28;20031;-78
2023/06/19 00:23:43;;;;;;;15.75;14.15;;;18.40;99.90;;;;;;2094713;28;20415;-78
2023/06/19 00:24:44;;;;;;;15.23;13.73;;;18.40;99.90;;;;;;2094308;28;20539;-76
2023/06/19 00:25:45;;;;;;;17.90;14.38;;;18.40;99.90;;;;;;2105022;28;20024;-77
2023/06/19 00:26:45;;;;;;;15.73;14.13;;;18.30;99.90;;;;;;2091953;28;20115;-76
2023/06/19 00:27:46;;;;;;;16.35;14.68;;;18.40;99.90;;;;;;2094114;28;20583;-77
2023/06/19 00:28:50;;;;;;;15.73;14.02;;;18.30;99.90;;;;;;2091592;28;20035;-77
2023/06/19 00:29:51;;;;;;;15.82;14.18;;;18.30;99.90;;;;;;2098110;28;20081;-78
2023/06/19 00:30:53;;;;;;;15.43;13.77;;;18.30;99.90;;;;;;2093893;28;20028;-78
2023/06/19 00:31:55;;;;;;;15.90;14.20;;;18.30;99.90;;;;;;2096420;28;20063;-78
2023/06/19 00:32:57;;;;;;;15.55;13.93;;;18.30;99.90;;;;;;2103063;28;20666;-78
2023/06/19 00:33:58;;;;;;;16.10;14.40;;;18.30;99.90;;;;;;2101637;28;20020;-79
2023/06/19 00:35:00;;;;;;;15.25;13.65;;;18.30;99.90;;;;;;2093674;28;20432;-77
2023/06/19 00:36:01;;;;;;;15.88;13.93;;;18.30;99.90;;;;;;2087802;28;20108;-79
2023/06/19 00:37:01;;;;;;;15.20;13.70;;;18.20;99.90;;;;;;2092499;28;20025;-77
2023/06/19 00:38:02;;;;;;;16.30;14.30;;;18.20;99.90;;;;;;2093846;28;20140;-77
2023/06/19 00:39:03;;;;;;;15.82;13.82;;;18.20;99.90;;;;;;2100935;28;20077;-78
2023/06/19 00:40:06;;;;;;;15.88;14.27;;;18.20;99.90;;;;;;2100558;28;20031;-78
2023/06/19 00:41:07;;;;;;;15.90;14.10;;;18.20;99.90;;;;;;2099251;28;20028;-78
2023/06/19 00:42:08;;;;;;;15.88;14.27;;;18.20;99.90;;;;;;2102554;28;20024;-78
2023/06/19 00:43:08;;;;;;;15.20;13.70;;;18.20;99.90;;;;;;2102268;28;20113;-78
2023/06/19 00:44:10;;;;;;;16.02;14.32;;;18.20;99.90;;;;;;2100859;28;20080;-78
2023/06/19 00:45:10;;;;;;;15.82;14.20;;;18.20;99.90;;;;;;2102163;28;20086;-78
2023/06/19 00:46:11;;;;;;;16.00;14.30;;;18.20;99.90;;;;;;2094153;28;20495;-80
2023/06/19 00:47:12;;;;;;;16.13;14.48;;;18.20;99.90;;;;;;2101917;28;20034;-77
2023/06/19 00:48:13;;;;;;;16.20;14.52;;;18.20;99.90;;;;;;2088745;28;20415;-78
2023/06/19 00:49:14;;;;;;;16.52;14.85;;;18.20;99.90;;;;;;2084497;28;20033;-77
2023/06/19 00:50:15;;;;;;;15.82;14.23;;;18.20;99.90;;;;;;2090846;28;20025;-78
2023/06/19 00:51:16;;;;;;;16.02;14.48;;;18.20;99.90;;;;;;2097672;28;20048;-78
2023/06/19 00:52:17;;;;;;;16.38;14.68;;;18.20;99.90;;;;;;2103507;28;20028;-79
2023/06/19 00:53:19;;;;;;;16.25;14.65;;;18.20;99.90;;;;;;2089241;28;20509;-78
2023/06/19 00:54:21;;;;;;;16.85;15.07;;;18.20;99.90;;;;;;2091743;28;20029;-78
2023/06/19 00:55:22;;;;;;;16.73;15.02;;;18.20;99.90;;;;;;2083074;28;20115;-77
2023/06/19 00:56:22;;;;;;;17.13;15.32;;;18.20;99.90;;;;;;2083775;28;20660;-77
2023/06/19 00:57:24;;;;;;;16.98;15.18;;;18.20;99.90;;;;;;2092110;28;20067;-76
2023/06/19 00:58:25;;;;;;;16.10;14.50;;;18.20;99.90;;;;;;2093068;28;20020;-77
2023/06/19 00:59:26;;;;;;;16.17;14.68;;;18.10;99.90;;;;;;2104990;28;20024;-79
2023/06/19 01:00:27;;;;;;;16.70;15.00;;;18.10;99.90;;;;;;2100928;28;20028;-77
2023/06/19 01:01:28;;;;;;;16.35;14.77;;;18.00;99.90;;;;;;2099199;27;20313;-78
2023/06/19 01:02:28;;;;;;;17.48;15.60;;;18.00;99.90;;;;;;2096783;28;20044;-76
2023/06/19 01:03:29;;;;;;;16.45;14.85;;;18.10;99.90;;;;;;2096848;28;20032;-77
2023/06/19 01:04:30;;;;;;;17.40;15.60;;;18.00;99.90;;;;;;2095171;28;20070;-77
2023/06/19 01:05:30;;;;;;;17.17;15.50;;;18.00;99.90;;;;;;2092928;28;20668;-78
2023/06/19 01:06:42;;;;;;;17.23;15.43;;;18.00;99.90;;;;;;2095204;28;20063;-78
2023/06/19 01:08:10;;;;;;;17.70;15.90;;;17.90;99.90;;;;;;2099671;28;20048;-77
2023/06/19 01:09:15;;;;;;;17.20;15.50;;;17.90;99.90;;;;;;2096318;28;20016;-77
2023/06/19 01:10:20;;;;;;;17.20;15.40;;;17.90;99.90;;;;;;2088836;28;20419;-77
2023/06/19 01:11:24;;;;;;;16.95;15.27;;;17.90;99.90;;;;;;2085925;28;20086;-76
2023/06/19 01:12:30;;;;;;;16.95;15.15;;;17.90;99.90;;;;;;2095975;28;20028;-77
2023/06/19 01:13:38;;;;;;;17.63;15.98;;;17.90;99.90;;;;;;2091222;28;20025;-76
2023/06/19 01:14:49;;;;;;;17.25;15.55;;;17.90;99.90;;;;;;2098371;28;20467;-76
2023/06/19 01:15:52;;;;;;;18.77;15.93;;;17.80;99.90;;;;;;2099656;28;20016;-76
2023/06/19 01:16:52;;;;;;;18.15;15.68;;;17.90;99.90;;;;;;2099276;28;20024;-76
2023/06/19 01:17:56;;;;;;;17.77;15.98;;;17.80;99.90;;;;;;2095411;28;20028;-77
2023/06/19 01:18:57;;;;;;;17.00;15.30;;;17.80;99.90;;;;;;2098779;28;20028;-77
2023/06/19 01:19:59;;;;;;;17.30;15.50;;;17.80;99.90;;;;;;2095764;28;20035;-77
2023/06/19 01:21:14;;;;;;;20.38;15.80;;;17.90;99.90;;;;;;2099106;28;20111;-77
2023/06/19 01:22:27;;;;;;;16.60;14.98;;;17.90;99.90;;;;;;2102507;28;20684;-77
2023/06/19 01:23:28;;;;;;;17.20;15.43;;;17.90;99.90;;;;;;2101895;28;20031;-78
2023/06/19 01:24:29;;;;;;;16.80;14.85;;;17.90;99.90;;;;;;2100079;28;20035;-78
2023/06/19 01:25:29;;;;;;;17.30;15.45;;;17.80;99.90;;;;;;2098741;28;20096;-78
2023/06/19 01:26:30;;;;;;;17.83;15.07;;;17.80;99.90;;;;;;2096118;28;20048;-76
2023/06/19 01:27:32;;;;;;;16.90;15.25;;;17.80;99.90;;;;;;2102494;28;20032;-77
2023/06/19 01:28:37;;;;;;;17.42;15.63;;;17.80;99.90;;;;;;2094689;28;20124;-77
2023/06/19 01:29:38;;;;;;;16.75;15.07;;;17.80;99.90;;;;;;2086902;28;20092;-77
2023/06/19 01:30:42;;;;;;;17.25;15.45;;;17.80;99.90;;;;;;2086098;28;20056;-76
2023/06/19 01:32:06;;;;;;;17.75;15.85;;;17.80;99.90;;;;;;2089956;28;20523;-77
2023/06/19 01:33:17;;;;;;;16.85;15.15;;;17.80;99.90;;;;;;2095740;28;20395;-77
2023/06/19 01:34:20;;;;;;;17.08;15.27;;;17.80;99.90;;;;;;2100213;28;20012;-77
2023/06/19 01:35:26;;;;;;;16.95;15.25;;;17.70;99.90;;;;;;2102512;28;20043;-76
2023/06/19 01:36:28;;;;;;;17.42;15.50;;;17.70;99.90;;;;;;2103075;28;20043;-76
2023/06/19 01:37:33;;;;;;;17.58;15.77;;;17.70;99.90;;;;;;2105206;28;20524;-76
2023/06/19 01:38:34;;;;;;;17.63;15.82;;;17.70;99.90;;;;;;2105139;28;20031;-76
2023/06/19 01:39:37;;;;;;;17.55;15.82;;;17.70;99.90;;;;;;2105268;28;20106;-75
2023/06/19 01:40:38;;;;;;;17.35;15.52;;;17.70;99.90;;;;;;2103218;28;20105;-76
2023/06/19 01:41:40;;;;;;;17.95;15.93;;;17.70;99.90;;;;;;2103759;28;20455;-76
2023/06/19 01:42:41;;;;;;;16.80;15.10;;;17.70;99.90;;;;;;2093388;28;20032;-76
2023/06/19 01:43:43;;;;;;;16.33;14.75;;;17.70;99.90;;;;;;2099582;28;20107;-77
2023/06/19 01:44:43;;;;;;;18.27;15.15;;;17.70;99.90;;;;;;2094945;28;20446;-76
2023/06/19 01:45:44;;;;;;;16.40;14.70;;;17.70;99.90;;;;;;2096350;28;20025;-76
2023/06/19 01:46:49;;;;;;;16.77;15.07;;;17.70;99.90;;;;;;2091257;28;20601;-76
2023/06/19 01:47:49;;;;;;;16.83;15.13;;;17.70;99.90;;;;;;2096731;28;20032;-76
2023/06/19 01:48:51;;;;;;;17.30;14.82;;;17.70;99.90;;;;;;2092363;28;20028;-76
2023/06/19 01:49:52;;;;;;;16.60;14.82;;;17.70;99.90;;;;;;2086246;28;20036;-77
2023/06/19 01:50:53;;;;;;;16.90;15.23;;;17.70;99.90;;;;;;2078857;28;20025;-78
2023/06/19 01:51:55;;;;;;;16.58;14.82;;;17.70;99.90;;;;;;2095330;28;20032;-76
2023/06/19 01:52:57;;;;;;;17.25;14.75;;;17.70;99.90;;;;;;2098165;28;20025;-76
2023/06/19 01:53:58;;;;;;;17.88;16.05;;;17.70;99.90;;;;;;2099862;28;20111;-76
2023/06/19 01:54:59;;;;;;;17.38;15.57;;;17.60;99.90;;;;;;2098583;28;20206;-77
2023/06/19 01:55:59;;;;;;;17.98;16.08;;;17.70;99.90;;;;;;2096319;28;20383;-77
2023/06/19 01:57:00;;;;;;;19.02;16.58;;;17.70;99.90;;;;;;2097428;28;20580;-77
2023/06/19 01:58:01;;;;;;;17.58;15.77;;;17.60;99.90;;;;;;2086369;28;20240;-77
2023/06/19 01:59:01;;;;;;;19.42;16.45;;;17.60;99.90;;;;;;2092324;28;20031;-77
2023/06/19 02:00:05;;;;;;;17.88;16.00;;;17.60;99.90;;;;;;2092066;28;20057;-76
2023/06/19 02:01:14;;;;;;;17.65;15.60;;;17.60;99.90;;;;;;2102280;28;20118;-76
2023/06/19 02:02:15;;;;;;;17.58;15.77;;;17.50;99.90;;;;;;2103378;28;20023;-77
2023/06/19 02:03:15;;;;;;;17.27;15.48;;;17.50;99.90;;;;;;2101231;28;20460;-77
2023/06/19 02:04:16;;;;;;;16.80;14.93;;;17.50;99.90;;;;;;2096044;28;20020;-77
2023/06/19 02:05:17;;;;;;;17.20;14.82;;;17.40;99.90;;;;;;2093252;28;20555;-77
2023/06/19 02:06:18;;;;;;;16.77;14.85;;;17.40;99.90;;;;;;2093914;28;20032;-77
2023/06/19 02:07:19;;;;;;;17.40;15.60;;;17.40;99.90;;;;;;2093724;28;20025;-77
2023/06/19 02:08:21;;;;;;;16.50;14.75;;;17.40;99.90;;;;;;2090027;28;20613;-77
2023/06/19 02:09:22;;;;;;;16.55;14.85;;;17.40;99.90;;;;;;2095342;28;20059;-76
2023/06/19 02:10:23;;;;;;;16.75;14.98;;;17.40;99.90;;;;;;2097732;28;20043;-76
2023/06/19 02:11:23;;;;;;;16.45;14.70;;;17.40;99.90;;;;;;2103760;28;20055;-76
2023/06/19 02:12:24;;;;;;;16.75;15.10;;;17.40;99.90;;;;;;2098735;28;20105;-77
2023/06/19 02:13:26;;;;;;;16.92;15.23;;;17.40;99.90;;;;;;2093485;28;20806;-77
2023/06/19 02:14:26;;;;;;;16.90;15.20;;;17.40;99.90;;;;;;2092147;28;20115;-76
2023/06/19 02:15:27;;;;;;;17.58;15.27;;;17.40;99.90;;;;;;2093778;28;20040;-77
2023/06/19 02:16:27;;;;;;;16.90;14.88;;;17.40;99.90;;;;;;2101580;28;20127;-76
2023/06/19 02:17:29;;;;;;;17.38;15.55;;;17.30;99.90;;;;;;2098955;28;20028;-77
2023/06/19 02:18:30;;;;;;;17.05;15.35;;;17.30;99.90;;;;;;2091698;28;20032;-76
2023/06/19 02:19:31;;;;;;;16.77;15.00;;;17.30;99.90;;;;;;2101876;28;20036;-77
2023/06/19 02:20:32;;;;;;;17.33;15.63;;;17.30;99.90;;;;;;2102350;28;20201;-77
2023/06/19 02:21:32;;;;;;;16.58;14.98;;;17.30;99.90;;;;;;2099415;28;20092;-76
2023/06/19 02:22:33;;;;;;;17.48;15.68;;;17.30;99.90;;;;;;2098872;28;20082;-75
2023/06/19 02:23:33;;;;;;;17.90;16.10;;;17.30;99.90;;;;;;2098365;28;20784;-76
2023/06/19 02:24:34;;;;;;;17.50;15.70;;;17.30;99.90;;;;;;2101021;28;20035;-76
2023/06/19 02:25:35;;;;;;;18.00;16.13;;;17.30;99.90;;;;;;2092463;28;20074;-77
2023/06/19 02:26:36;;;;;;;17.75;15.95;;;17.20;99.90;;;;;;2100055;28;20040;-79
2023/06/19 02:27:37;;;;;;;17.77;16.08;;;17.20;99.90;;;;;;2100341;28;20067;-81
2023/06/19 02:28:37;;;;;;;17.45;15.65;;;17.30;99.90;;;;;;2085704;28;20070;-77
2023/06/19 02:29:39;;;;;;;18.77;16.88;;;17.30;99.90;;;;;;2098053;28;20116;-72
2023/06/19 02:30:40;;;;;;;18.33;16.42;;;17.20;99.90;;;;;;2099440;28;20352;-78
2023/06/19 02:31:43;;;;;;;18.20;16.30;;;17.20;99.90;;;;;;2094519;28;20091;-73
2023/06/19 02:32:44;;;;;;;18.83;16.90;;;17.20;99.90;;;;;;2091658;28;20080;-73
2023/06/19 02:33:45;;;;;;;19.50;17.40;;;17.10;99.90;;;;;;2093796;28;20051;-73
2023/06/19 02:34:45;;;;;;;18.17;16.38;;;17.10;99.90;;;;;;2101671;28;20065;-74
2023/06/19 02:35:46;;;;;;;18.60;16.80;;;17.10;99.90;;;;;;2103747;28;20027;-74
2023/06/19 02:36:47;;;;;;;18.45;16.55;;;17.10;99.90;;;;;;2096520;28;20020;-74
2023/06/19 02:37:47;;;;;;;19.88;17.38;;;17.10;99.90;;;;;;2097199;28;20031;-75
2023/06/19 02:38:49;;;;;;;17.98;16.17;;;17.00;99.90;;;;;;2100749;28;20035;-75
2023/06/19 02:39:49;;;;;;;18.08;16.27;;;17.00;99.90;;;;;;2094723;28;20076;-73
2023/06/19 02:40:50;;;;;;;18.42;16.60;;;17.00;99.90;;;;;;2093692;28;20035;-73
2023/06/19 02:41:51;;;;;;;18.42;16.48;;;17.00;99.90;;;;;;2103903;28;20476;-74
2023/06/19 02:42:51;;;;;;;18.35;16.45;;;17.00;99.90;;;;;;2102280;28;20480;-74
2023/06/19 02:43:52;;;;;;;18.27;16.48;;;17.00;99.90;;;;;;2094167;28;20551;-74
2023/06/19 02:44:52;;;;;;;21.48;17.00;;;16.90;99.90;;;;;;2101045;28;20517;-74
2023/06/19 02:45:53;;;;;;;19.98;17.60;;;17.00;99.90;;;;;;2105964;28;20647;-73
2023/06/19 02:46:54;;;;;;;19.35;17.38;;;17.00;99.90;;;;;;2098573;28;20032;-73
2023/06/19 02:47:54;;;;;;;19.70;17.60;;;16.90;99.90;;;;;;2088944;28;20116;-73
2023/06/19 02:48:55;;;;;;;19.13;17.23;;;16.90;99.90;;;;;;2083930;28;20074;-73
2023/06/19 02:50:02;;;;;;;20.15;17.13;;;16.90;99.90;;;;;;2095667;28;20020;-75
2023/06/19 02:51:02;;;;;;;19.38;17.48;;;16.90;99.90;;;;;;2089504;28;20516;-73
2023/06/19 02:52:04;;;;;;;18.55;16.73;;;16.90;99.90;;;;;;2090081;28;20031;-73
2023/06/19 02:53:05;;;;;;;18.83;16.92;;;16.90;99.90;;;;;;2092921;28;20110;-73
2023/06/19 02:54:06;;;;;;;18.67;16.75;;;16.90;99.90;;;;;;2086723;28;20492;-75
2023/06/19 02:55:07;;;;;;;19.45;17.17;;;16.90;99.90;;;;;;2089662;28;20036;-73
2023/06/19 02:56:07;;;;;;;19.65;17.55;;;16.80;99.90;;;;;;2090189;28;20047;-73
2023/06/19 02:57:08;;;;;;;18.67;16.77;;;16.80;99.90;;;;;;2094997;28;20123;-72
2023/06/19 02:58:10;;;;;;;19.00;17.10;;;16.80;99.90;;;;;;2099074;28;20515;-73
2023/06/19 02:59:12;;;;;;;18.27;16.42;;;16.80;99.90;;;;;;2099308;27;20107;-73
2023/06/19 03:00:14;;;;;;;18.98;17.13;;;16.80;99.90;;;;;;2099386;28;20029;-73
2023/06/19 03:01:14;;;;;;;19.55;17.60;;;16.90;99.90;;;;;;2101367;28;20024;-73
2023/06/19 03:02:15;;;;;;;19.40;17.40;;;16.90;99.90;;;;;;2101263;28;20053;-73
2023/06/19 03:03:17;;;;;;;19.48;17.48;;;16.90;99.90;;;;;;2094448;28;20705;-73
2023/06/19 03:04:17;;;;;;;18.27;16.17;;;16.90;99.90;;;;;;2100955;28;20031;-73
2023/06/19 03:05:18;;;;;;;18.77;16.80;;;16.90;99.90;;;;;;2092720;28;20107;-74
2023/06/19 03:06:18;;;;;;;19.25;17.33;;;16.90;99.90;;;;;;2089843;28;20123;-74
2023/06/19 03:07:19;;;;;;;18.80;16.58;;;16.90;99.90;;;;;;2088565;28;20031;-74
2023/06/19 03:08:20;;;;;;;18.98;16.98;;;16.90;99.90;;;;;;2086082;28;20091;-74
2023/06/19 03:09:21;;;;;;;18.38;16.52;;;16.90;99.90;;;;;;2092477;28;20589;-74
2023/06/19 03:10:22;;;;;;;19.25;17.15;;;17.00;99.90;;;;;;2094429;28;20086;-75
2023/06/19 03:11:22;;;;;;;18.30;16.50;;;17.00;99.90;;;;;;2095387;28;20090;-74
2023/06/19 03:12:23;;;;;;;18.92;17.10;;;17.00;99.90;;;;;;2092395;28;20052;-73
2023/06/19 03:13:24;;;;;;;18.05;16.35;;;17.00;99.90;;;;;;2100890;28;20023;-74
2023/06/19 03:14:24;;;;;;;18.27;16.38;;;17.10;99.90;;;;;;2097006;28;20024;-75
2023/06/19 03:15:25;;;;;;;19.10;17.20;;;17.10;99.90;;;;;;2100173;28;20498;-74
2023/06/19 03:16:26;;;;;;;19.10;17.20;;;17.10;99.90;;;;;;2095570;28;20115;-74
2023/06/19 03:17:27;;;;;;;18.80;16.90;;;17.10;99.90;;;;;;2089859;28;20013;-74
2023/06/19 03:18:27;;;;;;;17.80;16.00;;;17.10;99.90;;;;;;2089657;28;20116;-74
2023/06/19 03:19:28;;;;;;;18.60;16.60;;;17.20;99.90;;;;;;2100454;28;20020;-73
2023/06/19 03:20:28;;;;;;;18.70;16.75;;;17.20;99.90;;;;;;2098395;28;20033;-74
2023/06/19 03:21:31;;;;;;;18.15;16.35;;;17.20;99.90;;;;;;2091698;28;20501;-73
2023/06/19 03:22:32;;;;;;;18.88;16.98;;;17.20;99.90;;;;;;2095175;28;20119;-73
2023/06/19 03:23:32;;;;;;;17.77;15.98;;;17.20;99.90;;;;;;2091581;28;20047;-74
2023/06/19 03:24:33;;;;;;;18.30;16.40;;;17.30;99.90;;;;;;2104767;28;20120;-73
2023/06/19 03:25:47;;;;;;;18.75;16.85;;;17.30;99.90;;;;;;2094677;28;20092;-73
2023/06/19 03:26:48;;;;;;;18.45;16.55;;;17.30;99.90;;;;;;2094306;28;20054;-73
2023/06/19 03:27:48;;;;;;;18.40;16.50;;;17.30;99.90;;;;;;2098620;28;20028;-73
2023/06/19 03:28:49;;;;;;;17.58;15.80;;;17.40;99.90;;;;;;2099457;28;20056;-73
2023/06/19 03:29:50;;;;;;;17.95;16.15;;;17.40;99.90;;;;;;2099203;28;20028;-73
2023/06/19 03:30:56;;;;;;;18.13;16.33;;;17.40;99.90;;;;;;2090485;28;20029;-73
2023/06/19 03:31:58;;;;;;;18.50;16.70;;;17.50;99.90;;;;;;2096755;28;20036;-73
2023/06/19 03:33:04;;;;;;;18.80;16.90;;;17.50;99.90;;;;;;2093152;28;20094;-73
2023/06/19 03:34:14;;;;;;;17.50;15.75;;;17.50;99.90;;;;;;2090247;28;20032;-74
2023/06/19 03:35:14;;;;;;;18.55;16.65;;;17.50;99.90;;;;;;2093781;28;21449;-74
2023/06/19 03:36:17;;;;;;;18.08;16.27;;;17.50;99.90;;;;;;2091397;28;20024;-75
2023/06/19 03:37:25;;;;;;;19.08;16.83;;;17.60;99.90;;;;;;2096125;28;20645;-74
2023/06/19 03:38:26;;;;;;;17.77;15.98;;;17.60;99.90;;;;;;2095279;28;20020;-74
2023/06/19 03:39:28;;;;;;;18.42;16.63;;;17.70;99.90;;;;;;2102003;28;20047;-74
2023/06/19 03:40:34;;;;;;;17.67;15.77;;;17.70;99.90;;;;;;2093511;28;20095;-74
2023/06/19 03:41:41;;;;;;;18.98;16.63;;;17.70;99.90;;;;;;2093284;28;20062;-74
2023/06/19 03:42:42;;;;;;;19.20;17.20;;;17.70;99.90;;;;;;2094454;28;20057;-73
2023/06/19 03:43:43;;;;;;;17.35;15.63;;;17.70;99.90;;;;;;2092654;28;20024;-72
2023/06/19 03:44:44;;;;;;;17.88;15.70;;;17.70;99.90;;;;;;2079323;28;20025;-72
2023/06/19 03:45:44;;;;;;;17.27;15.48;;;17.80;99.90;;;;;;2086854;28;20142;-73
2023/06/19 03:46:46;;;;;;;17.25;15.45;;;17.80;99.90;;;;;;2091652;28;20048;-73
2023/06/19 03:47:47;;;;;;;19.30;15.63;;;17.80;99.90;;;;;;2091484;28;20048;-73
2023/06/19 03:48:47;;;;;;;17.83;16.05;;;17.70;99.90;;;;;;2085302;28;20032;-73
2023/06/19 03:49:48;;;;;;;17.77;16.08;;;17.70;99.90;;;;;;2100523;28;20023;-74
2023/06/19 03:50:49;;;;;;;16.75;15.05;;;17.70;99.90;;;;;;2100321;28;20035;-73
2023/06/19 03:51:49;;;;;;;17.48;15.60;;;17.70;99.90;;;;;;2095445;28;20190;-73
2023/06/19 03:52:50;;;;;;;17.15;15.32;;;17.70;99.90;;;;;;2095738;28;20036;-73
2023/06/19 03:53:51;;;;;;;18.27;15.40;;;17.60;99.90;;;;;;2095458;28;20082;-73
2023/06/19 03:54:52;;;;;;;17.30;15.50;;;17.60;99.90;;;;;;2084704;28;20051;-73
2023/06/19 03:55:53;;;;;;;17.30;15.52;;;17.60;99.90;;;;;;2099427;28;20116;-73
2023/06/19 03:56:53;;;;;;;17.73;15.45;;;17.60;99.90;;;;;;2091691;28;20055;-73
2023/06/19 03:57:54;;;;;;;18.38;15.27;;;17.60;99.90;;;;;;2093137;28;20025;-73
2023/06/19 03:58:56;;;;;;;17.13;15.27;;;17.60;99.90;;;;;;2090998;28;20028;-73
2023/06/19 03:59:57;;;;;;;17.65;15.10;;;17.60;99.90;;;;;;2093186;28;20394;-73
2023/06/19 04:00:58;;;;;;;18.88;15.70;;;17.70;99.90;;;;;;2097091;28;20477;-73
2023/06/19 04:01:58;;;;;;;17.60;15.73;;;17.60;99.90;;;;;;2097851;28;20049;-73
2023/06/19 04:02:59;;;;;;;16.73;14.95;;;17.70;99.90;;;;;;2092691;28;20025;-73
2023/06/19 04:03:59;;;;;;;16.48;14.77;;;17.70;99.90;;;;;;2083154;28;20071;-72
2023/06/19 04:05:00;;;;;;;16.85;14.93;;;17.70;99.90;;;;;;2088672;28;20036;-73
2023/06/19 04:06:00;;;;;;;15.55;13.95;;;17.70;99.90;;;;;;2078163;28;20473;-74
2023/06/19 04:07:01;;;;;;;15.75;14.15;;;17.70;99.90;;;;;;2085249;28;20138;-73
2023/06/19 04:08:02;;;;;;;16.33;14.63;;;17.70;99.90;;;;;;2102246;28;20403;-74
2023/06/19 04:09:02;;;;;;;16.70;14.85;;;17.70;99.90;;;;;;2095725;28;20388;-74
2023/06/19 04:10:03;;;;;;;17.40;15.40;;;17.80;99.90;;;;;;2100729;28;20049;-73
2023/06/19 04:11:04;;;;;;;17.27;15.18;;;17.80;99.90;;;;;;2101717;28;20027;-74
2023/06/19 04:12:05;;;;;;;16.73;15.02;;;17.90;99.90;;;;;;2089703;28;20116;-73
2023/06/19 04:13:06;;;;;;;19.70;16.13;;;17.90;99.90;;;;;;2094650;28;20095;-73
2023/06/19 04:14:07;;;;;;;17.45;15.63;;;18.00;99.90;;;;;;2101198;28;20028;-73
2023/06/19 04:15:08;;;;;;;17.13;15.32;;;18.00;99.90;;;;;;2100561;28;20119;-74
2023/06/19 04:16:09;;;;;;;17.95;16.15;;;18.10;99.90;;;;;;2093894;28;20105;-74
2023/06/19 04:17:09;;;;;;;17.00;15.30;;;18.10;99.90;;;;;;2091035;28;20369;-74
2023/06/19 04:18:10;;;;;;;17.77;15.60;;;18.10;99.90;;;;;;2091021;28;20044;-73
2023/06/19 04:19:11;;;;;;;17.27;15.40;;;18.20;99.90;;;;;;2082586;28;20040;-73
2023/06/19 04:20:12;;;;;;;21.05;15.63;;;18.20;99.90;;;;;;2089279;28;20481;-74
2023/06/19 04:21:15;;;;;;;16.75;14.95;;;18.30;99.90;;;;;;2091689;28;20028;-73
2023/06/19 04:22:15;;;;;;;17.42;15.55;;;18.30;99.90;;;;;;2091010;28;20081;-74
2023/06/19 04:23:16;;;;;;;18.83;15.35;;;18.30;99.90;;;;;;2098034;28;20082;-73
2023/06/19 04:24:17;;;;;;;16.85;15.05;;;18.30;99.90;;;;;;2097026;28;20032;-73
2023/06/19 04:25:18;;;;;;;18.15;16.02;;;18.40;99.90;;;;;;2092959;28;20021;-75
2023/06/19 04:26:18;;;;;;;17.02;15.32;;;18.50;99.90;;;;;;2100137;28;20036;-73
2023/06/19 04:27:19;;;;;;;16.25;14.52;;;18.70;99.90;;;;;;2100484;28;20027;-73
2023/06/19 04:28:20;;;;;;;15.77;13.85;;;19.10;99.90;;;;;;2092609;28;20130;-73
2023/06/19 04:29:21;;;;;;;16.38;14.10;;;19.50;99.90;;;;;;2104858;28;20090;-74
2023/06/19 04:30:21;;;;;;;15.45;13.80;;;20.00;99.90;;;;;;2103081;28;20061;-74
2023/06/19 04:31:23;;;;;;;15.82;14.18;;;20.50;99.90;;;;;;2096724;28;20530;-73
2023/06/19 04:32:23;;;;;;;15.02;13.43;;;21.00;99.90;;;;;;2097825;28;20554;-73
2023/06/19 04:33:24;;;;;;;15.10;13.60;;;21.40;99.90;;;;;;2102224;28;20029;-72
2023/06/19 04:34:25;;;;;;;15.77;13.30;;;21.80;99.90;;;;;;2098639;28;20032;-73
2023/06/19 04:35:26;;;;;;;14.98;13.32;;;22.00;99.90;;;;;;2095514;28;20109;-73
2023/06/19 04:36:27;;;;;;;14.95;13.45;;;22.20;99.90;;;;;;2099139;28;20399;-75
2023/06/19 04:37:28;;;;;;;14.57;13.07;;;22.20;99.90;;;;;;2099127;28;20059;-72
2023/06/19 04:38:28;;;;;;;16.55;13.93;;;22.10;99.90;;;;;;2105962;28;20031;-73
2023/06/19 04:39:29;;;;;;;15.20;13.60;;;21.90;99.90;;;;;;2098735;28;20135;-74
2023/06/19 04:40:29;;;;;;;15.18;13.68;;;21.70;99.90;;;;;;2098624;28;20730;-73
2023/06/19 04:41:30;;;;;;;16.30;13.63;;;21.40;99.90;;;;;;2102404;28;20035;-73
2023/06/19 04:42:31;;;;;;;14.32;12.98;;;21.20;99.90;;;;;;2097901;28;20036;-75
2023/06/19 04:43:33;;;;;;;14.93;13.43;;;21.00;99.90;;;;;;2097998;28;20032;-75
2023/06/19 04:44:34;;;;;;;16.08;14.10;;;20.70;99.90;;;;;;2101734;28;20035;-73
2023/06/19 04:45:34;;;;;;;15.13;13.50;;;20.60;99.90;;;;;;2101075;28;20025;-75
2023/06/19 04:46:35;;;;;;;16.38;13.73;;;20.40;99.90;;;;;;2100340;28;20071;-74
2023/06/19 04:47:36;;;;;;;15.50;13.18;;;20.30;99.90;;;;;;2090972;28;20048;-73
2023/06/19 04:48:36;;;;;;;15.32;13.73;;;20.20;99.90;;;;;;2092130;28;20035;-74
2023/06/19 04:49:37;;;;;;;15.10;13.60;;;20.10;99.90;;;;;;2089347;28;20029;-72
2023/06/19 04:50:38;;;;;;;15.05;13.55;;;20.00;99.90;;;;;;2097398;28;20052;-73
2023/06/19 04:51:40;;;;;;;16.02;14.43;;;19.90;99.90;;;;;;2097934;28;20036;-73
2023/06/19 04:52:40;;;;;;;15.75;14.00;;;19.80;99.90;;;;;;2093472;28;20555;-71
2023/06/19 04:53:41;;;;;;;15.40;13.77;;;19.80;99.90;;;;;;2092197;28;20032;-72
2023/06/19 04:54:42;;;;;;;15.95;14.30;;;19.70;99.90;;;;;;2090668;28;20032;-72
2023/06/19 04:55:43;;;;;;;16.08;14.30;;;19.70;99.90;;;;;;2099369;28;20027;-73
2023/06/19 04:56:44;;;;;;;15.48;13.88;;;19.60;99.90;;;;;;2101138;28;20027;-72
2023/06/19 04:57:44;;;;;;;15.90;14.38;;;19.60;99.90;;;;;;2098034;28;20122;-72
2023/06/19 04:58:46;;;;;;;17.30;14.35;;;19.60;99.90;;;;;;2098118;28;20025;-73
2023/06/19 04:59:46;;;;;;;15.75;14.15;;;19.60;99.90;;;;;;2096866;28;20067;-72
2023/06/19 05:00:51;;;;;;;15.38;13.77;;;19.60;99.90;;;;;;2096959;28;20029;-72
2023/06/19 05:01:54;;;;;;;15.32;13.73;;;19.60;99.90;;;;;;2100674;28;20025;-72
2023/06/19 05:03:00;;;;;;;15.57;13.95;;;19.60;99.90;;;;;;2091901;28;20682;-72
2023/06/19 05:04:00;;;;;;;17.23;14.40;;;19.50;99.90;;;;;;2087741;28;20036;-72
2023/06/19 05:05:03;;;;;;;16.80;14.95;;;19.50;99.90;;;;;;2093115;28;20032;-72
2023/06/19 05:06:03;;;;;;;16.02;14.40;;;19.40;99.90;;;;;;2102321;28;20081;-73
2023/06/19 05:07:04;;;;;;;15.27;13.77;;;19.40;99.90;;;;;;2102161;28;20054;-74
2023/06/19 05:08:05;;;;;;;17.30;15.10;;;19.40;99.90;;;;;;2091120;28;20048;-73
2023/06/19 05:09:05;;;;;;;17.90;15.32;;;19.30;99.90;;;;;;2084486;28;20036;-74
2023/06/19 05:10:07;;;;;;;16.90;14.85;;;19.30;99.90;;;;;;2092646;28;20023;-73
2023/06/19 05:11:07;;;;;;;20.15;15.38;;;19.30;99.90;;;;;;2087982;28;20040;-74
2023/06/19 05:12:09;;;;;;;18.08;15.52;;;19.20;99.90;;;;;;2100545;28;20391;-72
2023/06/19 05:13:10;;;;;;;15.73;14.13;;;19.10;99.90;;;;;;2092707;28;20506;-73